Wetterdaten: Dienstag, 10.02.2015
Datum Zeit Auen-Temp. Temp. -10 cm Luftfeuchte Luftfeuchte Luftdruck Regen Wind Richtung Richtung Taupunkt Windchill Windben
10.02.2015 00:00 -1,4 C 1,4 C 75 % 75 % 1029,7 hPa 0,0 l/m 1,9 km/h (1 Bft) W-SW 247 -5,2 C -2,0 C 0,0 km/h (0 Bft)
10.02.2015 00:05 -1,5 C 1,3 C 75 % 75 % 1029,7 hPa 0,0 l/m 1,9 km/h (1 Bft) W 270 -5,3 C -2,1 C 4,2 km/h (1 Bft)
10.02.2015 00:10 -1,4 C 1,3 C 75 % 75 % 1029,6 hPa 0,0 l/m 1,4 km/h (1 Bft) S-SW 202 -5,2 C -2,1 C 3,4 km/h (1 Bft)
10.02.2015 00:15 -1,2 C 1,4 C 75 % 75 % 1029,6 hPa 0,0 l/m 2,7 km/h (1 Bft) W-SW 247 -5,0 C -2,6 C 6,3 km/h (2 Bft)
10.02.2015 00:20 -1,1 C 1,4 C 75 % 75 % 1029,6 hPa 0,0 l/m 3,9 km/h (1 Bft) S-SW 202 -5,0 C -3,1 C 5,1 km/h (1 Bft)
10.02.2015 00:25 -1,0 C 1,4 C 75 % 75 % 1029,6 hPa 0,0 l/m 3,7 km/h (1 Bft) W-SW 247 -4,9 C -2,9 C 6,9 km/h (2 Bft)
10.02.2015 00:30 -1,0 C 1,4 C 75 % 75 % 1029,4 hPa 0,0 l/m 3,7 km/h (1 Bft) SW 225 -4,9 C -2,8 C 4,0 km/h (1 Bft)
10.02.2015 00:35 -1,0 C 1,4 C 75 % 75 % 1029,4 hPa 0,0 l/m 3,5 km/h (1 Bft) S-SW 202 -4,9 C -2,7 C 3,7 km/h (1 Bft)
10.02.2015 00:40 -1,0 C 1,4 C 74 % 74 % 1029,4 hPa 0,0 l/m 3,9 km/h (1 Bft) SW 225 -5,0 C -2,8 C 6,9 km/h (2 Bft)
10.02.2015 00:42 -0,9 C 1,4 C 74 % 74 % 1029,4 hPa 0,0 l/m 4,3 km/h (1 Bft) S-SW 202 -4,9 C -3,1 C 5,3 km/h (1 Bft)
10.02.2015 00:45 -0,9 C 1,4 C 74 % 74 % 1029,4 hPa 0,0 l/m 4,3 km/h (1 Bft) S-SW 202 -4,9 C -3,1 C 5,3 km/h (1 Bft)
10.02.2015 00:50 -0,8 C 1,4 C 74 % 74 % 1029,4 hPa 0,0 l/m 4,7 km/h (1 Bft) SW 225 -4,8 C -3,1 C 5,8 km/h (2 Bft)
10.02.2015 00:55 -0,9 C 1,4 C 74 % 74 % 1029,4 hPa 0,0 l/m 4,2 km/h (1 Bft) SW 225 -4,9 C -2,9 C 8,2 km/h (2 Bft)
10.02.2015 01:00 -0,9 C 1,4 C 74 % 74 % 1029,4 hPa 0,0 l/m 3,5 km/h (1 Bft) W-SW 247 -4,9 C -2,4 C 4,7 km/h (1 Bft)
10.02.2015 01:05 -1,0 C 1,4 C 74 % 74 % 1029,4 hPa 0,0 l/m 3,4 km/h (1 Bft) S-SW 202 -5,0 C -2,3 C 4,5 km/h (1 Bft)
10.02.2015 01:10 -1,0 C 1,4 C 74 % 74 % 1029,3 hPa 0,0 l/m 3,7 km/h (1 Bft) W-SW 247 -5,0 C -2,6 C 3,1 km/h (1 Bft)
10.02.2015 01:15 -0,8 C 1,4 C 74 % 74 % 1029,3 hPa 0,0 l/m 4,2 km/h (1 Bft) S 180 -4,8 C -2,9 C 7,1 km/h (2 Bft)
10.02.2015 01:20 -0,9 C 1,4 C 74 % 74 % 1029,3 hPa 0,0 l/m 3,7 km/h (1 Bft) W-SW 247 -4,9 C -2,6 C 3,2 km/h (1 Bft)
10.02.2015 01:22 -1,0 C 1,4 C 74 % 74 % 1029,3 hPa 0,0 l/m 3,2 km/h (1 Bft) W-SW 247 -5,0 C -2,2 C 2,4 km/h (1 Bft)
10.02.2015 01:27 -1,0 C 1,4 C 74 % 74 % 1029,5 hPa 0,0 l/m 2,7 km/h (1 Bft) S 180 -5,0 C -2,0 C 5,5 km/h (1 Bft)
10.02.2015 01:32 -1,0 C 1,4 C 74 % 74 % 1029,5 hPa 0,0 l/m 3,1 km/h (1 Bft) S 180 -5,0 C -2,3 C 4,3 km/h (1 Bft)
10.02.2015 01:37 -1,0 C 1,4 C 74 % 74 % 1029,5 hPa 0,0 l/m 3,7 km/h (1 Bft) W-SW 247 -5,0 C -2,7 C 4,2 km/h (1 Bft)
10.02.2015 01:42 -1,0 C 1,4 C 73 % 73 % 1029,5 hPa 0,0 l/m 3,5 km/h (1 Bft) S 180 -5,2 C -2,6 C 6,1 km/h (2 Bft)
10.02.2015 01:47 -1,2 C 1,4 C 73 % 73 % 1029,3 hPa 0,0 l/m 4,3 km/h (1 Bft) S-SW 202 -5,4 C -3,3 C 6,1 km/h (2 Bft)
10.02.2015 01:52 -1,5 C 1,4 C 73 % 73 % 1029,3 hPa 0,0 l/m 4,7 km/h (1 Bft) SW 225 -5,7 C -3,7 C 4,2 km/h (1 Bft)
10.02.2015 01:57 -1,5 C 1,3 C 73 % 73 % 1029,3 hPa 0,0 l/m 5,3 km/h (1 Bft) SW 225 -5,7 C -4,3 C 7,7 km/h (2 Bft)
10.02.2015 02:02 -1,6 C 1,3 C 73 % 73 % 1029,3 hPa 0,0 l/m 5,5 km/h (1 Bft) SW 225 -5,8 C -4,7 C 5,5 km/h (1 Bft)
10.02.2015 02:07 -1,7 C 1,3 C 73 % 73 % 1029,3 hPa 0,0 l/m 5,5 km/h (1 Bft) S 180 -5,9 C -4,9 C 5,8 km/h (2 Bft)
10.02.2015 02:12 -2,0 C 1,3 C 73 % 73 % 1029,3 hPa 0,0 l/m 5,0 km/h (1 Bft) S-SW 202 -6,2 C -4,7 C 5,8 km/h (2 Bft)
10.02.2015 02:17 -2,2 C 1,3 C 73 % 73 % 1029,3 hPa 0,0 l/m 3,7 km/h (1 Bft) W-SW 247 -6,4 C -4,3 C 4,0 km/h (1 Bft)
10.02.2015 02:22 -2,7 C 1,3 C 73 % 73 % 1029,3 hPa 0,0 l/m 2,3 km/h (1 Bft) S 180 -6,9 C -3,4 C 2,1 km/h (1 Bft)
10.02.2015 02:27 -3,2 C 1,3 C 74 % 74 % 1029,4 hPa 0,0 l/m 0,8 km/h (0 Bft) S-SO 157 -7,2 C -3,9 C 1,9 km/h (1 Bft)
10.02.2015 02:32 -3,3 C 1,3 C 74 % 74 % 1029,4 hPa 0,0 l/m 0,6 km/h (0 Bft) S-SO 157 -7,3 C -4,2 C 1,8 km/h (1 Bft)
10.02.2015 02:37 -3,6 C 1,3 C 75 % 75 % 1029,4 hPa 0,0 l/m 0,3 km/h (0 Bft) S-SO 157 -7,4 C -4,7 C 0,0 km/h (0 Bft)
10.02.2015 02:42 -3,7 C 1,3 C 75 % 75 % 1029,4 hPa 0,0 l/m 0,2 km/h (0 Bft) S-SO 157 -7,5 C -4,9 C 0,0 km/h (0 Bft)
10.02.2015 02:47 -3,8 C 1,3 C 76 % 76 % 1029,3 hPa 0,0 l/m 0,2 km/h (0 Bft) S-SO 157 -7,4 C -5,0 C 0,0 km/h (0 Bft)
10.02.2015 02:52 -3,9 C 1,3 C 76 % 76 % 1029,3 hPa 0,0 l/m 0,0 km/h (0 Bft) S-SO 157 -7,5 C -5,1 C 0,0 km/h (0 Bft)
10.02.2015 02:57 -4,2 C 1,3 C 76 % 76 % 1029,3 hPa 0,0 l/m 0,0 km/h (0 Bft) S-SO 157 -7,8 C -5,4 C 0,0 km/h (0 Bft)
10.02.2015 03:02 -4,7 C 1,3 C 76 % 76 % 1029,3 hPa 0,0 l/m 0,0 km/h (0 Bft) W-SW 247 -8,3 C -5,6 C 0,0 km/h (0 Bft)
10.02.2015 03:07 -5,4 C 1,4 C 76 % 76 % 1029,3 hPa 0,0 l/m 0,0 km/h (0 Bft) W 270 -8,9 C -6,3 C 0,0 km/h (0 Bft)
10.02.2015 03:12 -5,3 C 1,4 C 76 % 76 % 1029,3 hPa 0,0 l/m 0,0 km/h (0 Bft) W 270 -8,8 C -6,5 C 0,0 km/h (0 Bft)
10.02.2015 03:17 -5,4 C 1,4 C 76 % 76 % 1029,3 hPa 0,0 l/m 0,0 km/h (0 Bft) S-SO 157 -8,9 C -6,6 C 0,0 km/h (0 Bft)
10.02.2015 03:22 -5,4 C 1,4 C 77 % 77 % 1029,3 hPa 0,0 l/m 0,0 km/h (0 Bft) S-SO 157 -8,8 C -6,7 C 0,0 km/h (0 Bft)
10.02.2015 03:27 -5,7 C 1,4 C 77 % 77 % 1029,3 hPa 0,0 l/m 0,0 km/h (0 Bft) O-SO 112 -9,1 C -6,8 C 0,0 km/h (0 Bft)
10.02.2015 03:32 -6,0 C 1,4 C 77 % 77 % 1029,3 hPa 0,0 l/m 0,0 km/h (0 Bft) S-SO 157 -9,4 C -6,9 C 0,0 km/h (0 Bft)
10.02.2015 03:37 -5,3 C 1,4 C 78 % 78 % 1029,3 hPa 0,0 l/m 0,0 km/h (0 Bft) S-SO 157 -8,5 C -6,8 C 0,0 km/h (0 Bft)
10.02.2015 03:42 -5,3 C 1,4 C 78 % 78 % 1029,3 hPa 0,0 l/m 0,0 km/h (0 Bft) O-SO 112 -8,5 C -6,6 C 0,0 km/h (0 Bft)
10.02.2015 03:47 -5,6 C 1,4 C 78 % 78 % 1029,1 hPa 0,0 l/m 0,0 km/h (0 Bft) O-SO 112 -8,8 C -6,7 C 0,0 km/h (0 Bft)
10.02.2015 03:52 -5,5 C 1,4 C 78 % 78 % 1029,1 hPa 0,0 l/m 0,0 km/h (0 Bft) O 90 -8,7 C -6,6 C 0,0 km/h (0 Bft)
10.02.2015 03:57 -5,5 C 1,4 C 78 % 78 % 1029,1 hPa 0,0 l/m 0,0 km/h (0 Bft) SW 225 -8,7 C -6,6 C 0,0 km/h (0 Bft)
10.02.2015 04:02 -5,3 C 1,4 C 78 % 78 % 1029,1 hPa 0,0 l/m 0,0 km/h (0 Bft) O-NO 67 -8,5 C -6,5 C 0,0 km/h (0 Bft)
10.02.2015 04:07 -5,7 C 1,4 C 78 % 78 % 1029,2 hPa 0,0 l/m 0,0 km/h (0 Bft) S-SO 157 -8,9 C -6,5 C 0,0 km/h (0 Bft)
10.02.2015 04:12 -5,7 C 1,4 C 79 % 79 % 1029,2 hPa 0,0 l/m 0,0 km/h (0 Bft) S-SO 157 -8,7 C -6,6 C 0,0 km/h (0 Bft)
10.02.2015 04:17 -5,5 C 1,4 C 79 % 79 % 1029,2 hPa 0,0 l/m 0,0 km/h (0 Bft) W 270 -8,5 C -6,6 C 0,0 km/h (0 Bft)
10.02.2015 04:22 -5,5 C 1,4 C 79 % 79 % 1029,2 hPa 0,0 l/m 0,0 km/h (0 Bft) SO 135 -8,5 C -6,6 C 0,0 km/h (0 Bft)
10.02.2015 04:27 -5,8 C 1,4 C 79 % 79 % 1029,2 hPa 0,0 l/m 0,0 km/h (0 Bft) O-NO 67 -8,8 C -6,7 C 0,0 km/h (0 Bft)
10.02.2015 04:32 -6,1 C 1,4 C 79 % 79 % 1029,2 hPa 0,0 l/m 0,0 km/h (0 Bft) O-NO 67 -9,1 C -6,9 C 0,0 km/h (0 Bft)
10.02.2015 04:37 -6,2 C 1,4 C 79 % 79 % 1029,2 hPa 0,0 l/m 0,0 km/h (0 Bft) NW 315 -9,2 C -7,1 C 0,0 km/h (0 Bft)
10.02.2015 04:42 -6,6 C 1,3 C 79 % 79 % 1029,2 hPa 0,0 l/m 0,0 km/h (0 Bft) W-NW 292 -9,6 C -7,3 C 0,0 km/h (0 Bft)
10.02.2015 04:47 -6,6 C 1,3 C 79 % 79 % 1029,4 hPa 0,0 l/m 0,0 km/h (0 Bft) NW 315 -9,6 C -7,5 C 0,0 km/h (0 Bft)
10.02.2015 04:52 -6,9 C 1,3 C 79 % 79 % 1029,4 hPa 0,0 l/m 0,0 km/h (0 Bft) N-NW 337 -9,9 C -7,6 C 0,0 km/h (0 Bft)
10.02.2015 04:57 -7,2 C 1,3 C 79 % 79 % 1029,4 hPa 0,0 l/m 0,0 km/h (0 Bft) N-NW 337 -10,2 C -7,9 C 0,0 km/h (0 Bft)
10.02.2015 05:02 -7,5 C 1,3 C 79 % 79 % 1029,4 hPa 0,0 l/m 0,0 km/h (0 Bft) W 270 -10,5 C -8,1 C 0,0 km/h (0 Bft)
10.02.2015 05:07 -7,3 C 1,3 C 79 % 79 % 1029,1 hPa 0,0 l/m 0,0 km/h (0 Bft) N-NW 337 -10,3 C -8,3 C 0,0 km/h (0 Bft)
10.02.2015 05:12 -7,0 C 1,3 C 79 % 79 % 1029,1 hPa 0,0 l/m 0,0 km/h (0 Bft) W-SW 247 -10,0 C -8,2 C 0,0 km/h (0 Bft)
10.02.2015 05:17 -6,9 C 1,3 C 79 % 79 % 1029,1 hPa 0,0 l/m 0,0 km/h (0 Bft) O-SO 112 -9,9 C -8,0 C 0,0 km/h (0 Bft)
10.02.2015 05:22 -6,7 C 1,3 C 79 % 79 % 1029,1 hPa 0,0 l/m 0,0 km/h (0 Bft) O-SO 112 -9,7 C -7,6 C 0,0 km/h (0 Bft)
10.02.2015 05:27 -6,8 C 1,3 C 79 % 79 % 1029,0 hPa 0,0 l/m 0,0 km/h (0 Bft) O 90 -9,8 C -7,5 C 0,0 km/h (0 Bft)
10.02.2015 05:32 -6,8 C 1,3 C 79 % 79 % 1029,0 hPa 0,0 l/m 0,0 km/h (0 Bft) O-SO 112 -9,8 C -7,6 C 0,0 km/h (0 Bft)
10.02.2015 05:37 -6,9 C 1,3 C 79 % 79 % 1029,0 hPa 0,0 l/m 0,0 km/h (0 Bft) O-NO 67 -9,9 C -7,6 C 0,0 km/h (0 Bft)
10.02.2015 05:42 -6,9 C 1,3 C 79 % 79 % 1029,0 hPa 0,0 l/m 0,0 km/h (0 Bft) N-NO 22 -9,9 C -7,6 C 0,0 km/h (0 Bft)
10.02.2015 05:47 -7,1 C 1,3 C 79 % 79 % 1029,2 hPa 0,0 l/m 0,0 km/h (0 Bft) NO 45 -10,1 C -7,9 C 0,0 km/h (0 Bft)
10.02.2015 05:52 -7,2 C 1,3 C 79 % 79 % 1029,2 hPa 0,0 l/m 0,0 km/h (0 Bft) N-NO 22 -10,2 C -8,1 C 0,0 km/h (0 Bft)
10.02.2015 05:57 -7,5 C 1,3 C 79 % 79 % 1029,2 hPa 0,0 l/m 0,0 km/h (0 Bft) NO 45 -10,5 C -8,2 C 0,0 km/h (0 Bft)
10.02.2015 06:02 -7,8 C 1,3 C 79 % 79 % 1029,2 hPa 0,0 l/m 0,0 km/h (0 Bft) N-NO 22 -10,8 C -8,5 C 0,0 km/h (0 Bft)
10.02.2015 06:07 -7,8 C 1,3 C 79 % 79 % 1029,2 hPa 0,0 l/m 0,0 km/h (0 Bft) NO 45 -10,8 C -8,6 C 0,0 km/h (0 Bft)
10.02.2015 06:12 -7,7 C 1,3 C 79 % 79 % 1029,2 hPa 0,0 l/m 0,0 km/h (0 Bft) SO 135 -10,7 C -8,7 C 0,0 km/h (0 Bft)
10.02.2015 06:17 -7,5 C 1,3 C 79 % 79 % 1029,2 hPa 0,0 l/m 0,0 km/h (0 Bft) SW 225 -10,5 C -8,6 C 0,0 km/h (0 Bft)
10.02.2015 06:22 -7,7 C 1,3 C 79 % 79 % 1029,2 hPa 0,0 l/m 0,0 km/h (0 Bft) SO 135 -10,7 C -8,7 C 0,0 km/h (0 Bft)
10.02.2015 06:27 -8,0 C 1,3 C 79 % 79 % 1029,4 hPa 0,0 l/m 0,0 km/h (0 Bft) SO 135 -11,0 C -8,7 C 0,0 km/h (0 Bft)
10.02.2015 06:32 -8,1 C 1,3 C 79 % 79 % 1029,4 hPa 0,0 l/m 0,0 km/h (0 Bft) SO 135 -11,1 C -8,8 C 0,0 km/h (0 Bft)
10.02.2015 06:37 -7,7 C 1,3 C 79 % 79 % 1029,4 hPa 0,0 l/m 0,0 km/h (0 Bft) S-SW 202 -10,7 C -8,7 C 0,0 km/h (0 Bft)
10.02.2015 06:42 -7,7 C 1,3 C 79 % 79 % 1029,4 hPa 0,0 l/m 0,0 km/h (0 Bft) S-SW 202 -10,7 C -8,7 C 0,0 km/h (0 Bft)
10.02.2015 06:47 -8,1 C 1,3 C 79 % 79 % 1029,6 hPa 0,0 l/m 0,0 km/h (0 Bft) W-NW 292 -11,1 C -8,7 C 0,0 km/h (0 Bft)
10.02.2015 06:52 -8,2 C 1,3 C 79 % 79 % 1029,6 hPa 0,0 l/m 0,0 km/h (0 Bft) NO 45 -11,2 C -8,9 C 0,0 km/h (0 Bft)
10.02.2015 06:57 -8,7 C 1,3 C 79 % 79 % 1029,6 hPa 0,0 l/m 0,0 km/h (0 Bft) O-NO 67 -11,7 C -9,1 C 0,0 km/h (0 Bft)
10.02.2015 07:02 -8,8 C 1,3 C 79 % 79 % 1029,6 hPa 0,0 l/m 0,0 km/h (0 Bft) O-NO 67 -11,8 C -9,4 C 0,0 km/h (0 Bft)
10.02.2015 07:07 -9,2 C 1,3 C 79 % 79 % 1029,6 hPa 0,0 l/m 0,0 km/h (0 Bft) O-NO 67 -12,2 C -9,8 C 0,0 km/h (0 Bft)
10.02.2015 07:12 -9,1 C 1,3 C 79 % 79 % 1029,6 hPa 0,0 l/m 0,0 km/h (0 Bft) O-NO 67 -12,1 C -9,9 C 0,0 km/h (0 Bft)
10.02.2015 07:17 -9,1 C 1,3 C 79 % 79 % 1029,6 hPa 0,0 l/m 0,0 km/h (0 Bft) O-NO 67 -12,1 C -10,0 C 0,0 km/h (0 Bft)
10.02.2015 07:22 -9,1 C 1,3 C 79 % 79 % 1029,6 hPa 0,0 l/m 0,0 km/h (0 Bft) O 90 -12,1 C -10,0 C 0,0 km/h (0 Bft)
10.02.2015 07:27 -9,2 C 1,3 C 79 % 79 % 1029,4 hPa 0,0 l/m 0,0 km/h (0 Bft) S 180 -12,2 C -10,0 C 0,0 km/h (0 Bft)
10.02.2015 07:32 -9,0 C 1,3 C 79 % 79 % 1029,4 hPa 0,0 l/m 0,0 km/h (0 Bft) W-NW 292 -12,0 C -10,0 C 0,0 km/h (0 Bft)
10.02.2015 07:37 -9,1 C 1,3 C 79 % 79 % 1029,4 hPa 0,0 l/m 0,0 km/h (0 Bft) W-NW 292 -12,1 C -10,0 C 0,0 km/h (0 Bft)
10.02.2015 07:42 -8,9 C 1,3 C 79 % 79 % 1029,4 hPa 0,0 l/m 0,0 km/h (0 Bft) N-NO 22 -11,9 C -9,9 C 0,0 km/h (0 Bft)
10.02.2015 07:47 -8,9 C 1,3 C 79 % 79 % 1029,4 hPa 0,0 l/m 0,0 km/h (0 Bft) W-SW 247 -11,9 C -9,7 C 0,0 km/h (0 Bft)
10.02.2015 07:52 -8,5 C 1,3 C 79 % 79 % 1029,4 hPa 0,0 l/m 0,0 km/h (0 Bft) SW 225 -11,5 C -9,7 C 0,0 km/h (0 Bft)
10.02.2015 07:57 -8,5 C 1,3 C 79 % 79 % 1029,4 hPa 0,0 l/m 0,0 km/h (0 Bft) W 270 -11,5 C -9,4 C 0,0 km/h (0 Bft)
10.02.2015 08:02 -8,6 C 1,3 C 79 % 79 % 1029,4 hPa 0,0 l/m 0,0 km/h (0 Bft) W 270 -11,6 C -9,4 C 0,0 km/h (0 Bft)
10.02.2015 08:07 -8,8 C 1,3 C 79 % 79 % 1029,4 hPa 0,0 l/m 0,0 km/h (0 Bft) W-SW 247 -11,8 C -9,4 C 0,0 km/h (0 Bft)
10.02.2015 08:12 -8,8 C 1,3 C 79 % 79 % 1029,4 hPa 0,0 l/m 0,0 km/h (0 Bft) W-SW 247 -11,8 C -9,3 C 0,0 km/h (0 Bft)
10.02.2015 08:17 -8,6 C 1,3 C 79 % 79 % 1029,4 hPa 0,0 l/m 0,0 km/h (0 Bft) W-SW 247 -11,6 C -9,2 C 0,0 km/h (0 Bft)
10.02.2015 08:22 -8,5 C 1,3 C 79 % 79 % 1029,4 hPa 0,0 l/m 0,0 km/h (0 Bft) W-SW 247 -11,5 C -9,1 C 0,0 km/h (0 Bft)
10.02.2015 08:27 -8,4 C 1,3 C 79 % 79 % 1029,2 hPa 0,0 l/m 0,0 km/h (0 Bft) W-SW 247 -11,4 C -9,1 C 0,0 km/h (0 Bft)
10.02.2015 08:32 -8,6 C 1,3 C 79 % 79 % 1029,2 hPa 0,0 l/m 0,0 km/h (0 Bft) W-SW 247 -11,6 C -9,1 C 0,0 km/h (0 Bft)
10.02.2015 08:37 -8,1 C 1,3 C 79 % 79 % 1029,2 hPa 0,0 l/m 0,0 km/h (0 Bft) S 180 -11,1 C -8,9 C 0,0 km/h (0 Bft)
10.02.2015 08:44 -8,1 C 1,3 C 79 % 79 % 1029,2 hPa 0,0 l/m 0,0 km/h (0 Bft) S 180 -11,1 C -8,9 C 0,0 km/h (0 Bft)
10.02.2015 08:45 -7,7 C 1,3 C 79 % 79 % 1029,2 hPa 0,0 l/m 0,0 km/h (0 Bft) W 270 -10,7 C -8,7 C 0,0 km/h (0 Bft)
10.02.2015 08:50 -7,9 C 1,3 C 79 % 79 % 1029,7 hPa 0,0 l/m 0,0 km/h (0 Bft) S-SO 157 -10,9 C -8,6 C 0,0 km/h (0 Bft)
10.02.2015 08:55 -7,7 C 1,3 C 79 % 79 % 1029,7 hPa 0,0 l/m 0,0 km/h (0 Bft) SO 135 -10,7 C -8,5 C 0,0 km/h (0 Bft)
10.02.2015 09:00 -7,2 C 1,3 C 79 % 79 % 1029,7 hPa 0,0 l/m 0,0 km/h (0 Bft) S-SO 157 -10,2 C -8,2 C 0,0 km/h (0 Bft)
10.02.2015 09:05 -7,1 C 1,3 C 79 % 79 % 1029,7 hPa 0,0 l/m 0,0 km/h (0 Bft) O-SO 112 -10,1 C -8,0 C 0,0 km/h (0 Bft)
10.02.2015 09:10 -6,9 C 1,3 C 79 % 79 % 1029,6 hPa 0,0 l/m 0,0 km/h (0 Bft) S-SO 157 -9,9 C -7,6 C 0,0 km/h (0 Bft)
10.02.2015 09:15 -7,0 C 1,3 C 79 % 79 % 1029,6 hPa 0,0 l/m 0,0 km/h (0 Bft) O-SO 112 -10,0 C -7,5 C 0,0 km/h (0 Bft)
10.02.2015 09:20 -6,5 C 1,3 C 80 % 80 % 1029,6 hPa 0,0 l/m 0,0 km/h (0 Bft) O-SO 112 -9,4 C -7,4 C 0,0 km/h (0 Bft)
10.02.2015 09:25 -6,1 C 1,4 C 80 % 80 % 1029,6 hPa 0,0 l/m 0,0 km/h (0 Bft) O-SO 112 -9,0 C -7,1 C 1,6 km/h (1 Bft)
10.02.2015 09:30 -5,8 C 1,4 C 81 % 81 % 1029,8 hPa 0,0 l/m 0,3 km/h (0 Bft) S-SO 157 -8,5 C -6,7 C 2,6 km/h (1 Bft)
10.02.2015 09:35 -5,5 C 1,4 C 81 % 81 % 1029,8 hPa 0,0 l/m 1,0 km/h (0 Bft) S-SO 157 -8,2 C -6,4 C 2,3 km/h (1 Bft)
10.02.2015 09:40 -5,2 C 1,4 C 81 % 81 % 1029,8 hPa 0,0 l/m 2,3 km/h (1 Bft) SO 135 -7,9 C -6,1 C 2,4 km/h (1 Bft)
10.02.2015 09:45 -4,9 C 1,4 C 82 % 82 % 1029,8 hPa 0,0 l/m 1,8 km/h (1 Bft) S 180 -7,5 C -5,5 C 0,0 km/h (0 Bft)
10.02.2015 09:50 -4,7 C 1,4 C 82 % 82 % 1029,8 hPa 0,0 l/m 0,6 km/h (0 Bft) SO 135 -7,3 C -5,1 C 0,0 km/h (0 Bft)
10.02.2015 09:55 -4,7 C 1,4 C 82 % 82 % 1029,8 hPa 0,0 l/m 0,3 km/h (0 Bft) O 90 -7,3 C -5,1 C 0,0 km/h (0 Bft)
10.02.2015 10:00 -4,6 C 1,4 C 82 % 82 % 1029,8 hPa 0,0 l/m 0,2 km/h (0 Bft) SO 135 -7,2 C -5,1 C 0,0 km/h (0 Bft)
10.02.2015 10:05 -4,4 C 1,3 C 82 % 82 % 1029,8 hPa 0,0 l/m 0,2 km/h (0 Bft) O-SO 112 -7,0 C -5,0 C 0,0 km/h (0 Bft)
10.02.2015 10:10 -4,2 C 1,3 C 83 % 83 % 1030,1 hPa 0,0 l/m 0,0 km/h (0 Bft) S 180 -6,6 C -4,8 C 0,0 km/h (0 Bft)
10.02.2015 10:15 -4,1 C 1,3 C 83 % 83 % 1030,1 hPa 0,0 l/m 0,0 km/h (0 Bft) SO 135 -6,5 C -4,7 C 0,0 km/h (0 Bft)
10.02.2015 10:20 -4,0 C 1,3 C 83 % 83 % 1030,1 hPa 0,0 l/m 0,0 km/h (0 Bft) SO 135 -6,4 C -4,5 C 0,0 km/h (0 Bft)
10.02.2015 10:25 -3,9 C 1,3 C 83 % 83 % 1030,1 hPa 0,0 l/m 0,0 km/h (0 Bft) S-SO 157 -6,4 C -4,2 C 0,0 km/h (0 Bft)
10.02.2015 10:30 -3,6 C 1,3 C 83 % 83 % 1030,2 hPa 0,0 l/m 0,0 km/h (0 Bft) S-SO 157 -6,1 C -3,8 C 0,0 km/h (0 Bft)
10.02.2015 10:35 -3,5 C 1,3 C 83 % 83 % 1030,2 hPa 0,0 l/m 0,0 km/h (0 Bft) S 180 -6,0 C -3,6 C 0,0 km/h (0 Bft)
10.02.2015 10:40 -3,3 C 1,3 C 83 % 83 % 1030,2 hPa 0,0 l/m 0,0 km/h (0 Bft) S 180 -5,8 C -3,5 C 0,0 km/h (0 Bft)
10.02.2015 10:45 -3,1 C 1,3 C 83 % 83 % 1030,2 hPa 0,0 l/m 0,0 km/h (0 Bft) O-SO 112 -5,6 C -3,5 C 0,0 km/h (0 Bft)
10.02.2015 10:50 -2,9 C 1,3 C 83 % 83 % 1030,4 hPa 0,0 l/m 0,0 km/h (0 Bft) S-SO 157 -5,4 C -3,4 C 0,0 km/h (0 Bft)
10.02.2015 10:55 -2,6 C 1,3 C 83 % 83 % 1030,4 hPa 0,0 l/m 0,0 km/h (0 Bft) S-SO 157 -5,1 C -3,3 C 0,0 km/h (0 Bft)
10.02.2015 11:00 -2,2 C 1,3 C 83 % 83 % 1030,4 hPa 0,0 l/m 0,0 km/h (0 Bft) W-SW 247 -4,7 C -3,2 C 0,0 km/h (0 Bft)
10.02.2015 11:05 -1,7 C 1,3 C 83 % 83 % 1030,4 hPa 0,0 l/m 0,0 km/h (0 Bft) SW 225 -4,2 C -2,5 C 0,0 km/h (0 Bft)
10.02.2015 11:10 -1,3 C 1,3 C 83 % 83 % 1030,6 hPa 0,0 l/m 0,2 km/h (0 Bft) W 270 -3,8 C -1,2 C 0,0 km/h (0 Bft)
10.02.2015 11:15 -1,3 C 1,4 C 83 % 83 % 1030,6 hPa 0,0 l/m 0,2 km/h (0 Bft) S 180 -3,8 C 0,3 C 0,0 km/h (0 Bft)
10.02.2015 11:20 -1,3 C 1,4 C 83 % 83 % 1030,6 hPa 0,0 l/m 0,0 km/h (0 Bft) W-SW 247 -3,8 C 0,5 C 0,0 km/h (0 Bft)
10.02.2015 11:25 -1,3 C 1,4 C 83 % 83 % 1030,6 hPa 0,0 l/m 0,0 km/h (0 Bft) S-SW 202 -3,8 C 0,5 C 0,0 km/h (0 Bft)
10.02.2015 11:30 -1,1 C 1,4 C 83 % 83 % 1030,6 hPa 0,0 l/m 0,0 km/h (0 Bft) S-SW 202 -3,6 C 1,4 C 0,0 km/h (0 Bft)
10.02.2015 11:35 -0,9 C 1,4 C 82 % 82 % 1030,6 hPa 0,0 l/m 0,0 km/h (0 Bft) S-SO 157 -3,6 C 2,0 C 0,0 km/h (0 Bft)
10.02.2015 11:40 -0,7 C 1,4 C 82 % 82 % 1030,6 hPa 0,0 l/m 0,0 km/h (0 Bft) O-SO 112 -3,4 C 1,6 C 0,0 km/h (0 Bft)
10.02.2015 11:45 -0,5 C 1,4 C 81 % 81 % 1030,6 hPa 0,0 l/m 0,0 km/h (0 Bft) S 180 -3,3 C 4,2 C 0,0 km/h (0 Bft)
10.02.2015 11:50 -0,4 C 1,4 C 80 % 80 % 1030,7 hPa 0,0 l/m 0,2 km/h (0 Bft) O-NO 67 -3,4 C 5,2 C 1,6 km/h (1 Bft)
10.02.2015 11:55 -0,1 C 1,4 C 79 % 79 % 1030,7 hPa 0,0 l/m 0,2 km/h (0 Bft) N-NO 22 -3,3 C 5,0 C 0,0 km/h (0 Bft)
10.02.2015 12:00 -0,1 C 1,4 C 78 % 78 % 1030,7 hPa 0,0 l/m 0,2 km/h (0 Bft) O-SO 112 -3,5 C 5,9 C 0,0 km/h (0 Bft)
10.02.2015 12:05 0,1 C 1,4 C 78 % 78 % 1030,7 hPa 0,0 l/m 0,0 km/h (0 Bft) N-NO 22 -3,3 C 4,8 C 0,0 km/h (0 Bft)
10.02.2015 12:10 0,5 C 1,4 C 77 % 77 % 1031,2 hPa 0,0 l/m 0,2 km/h (0 Bft) O-SO 112 -3,1 C 3,3 C 0,0 km/h (0 Bft)
10.02.2015 12:15 0,5 C 1,4 C 76 % 76 % 1031,2 hPa 0,0 l/m 0,2 km/h (0 Bft) O-NO 67 -3,2 C 3,3 C 0,0 km/h (0 Bft)
10.02.2015 12:20 0,8 C 1,4 C 76 % 76 % 1031,2 hPa 0,0 l/m 0,0 km/h (0 Bft) O-NO 67 -2,9 C 3,5 C 0,0 km/h (0 Bft)
10.02.2015 12:25 0,9 C 1,4 C 76 % 76 % 1031,2 hPa 0,0 l/m 0,0 km/h (0 Bft) O-NO 67 -2,8 C 2,8 C 0,0 km/h (0 Bft)
10.02.2015 12:30 1,1 C 1,4 C 75 % 75 % 1031,2 hPa 0,0 l/m 0,0 km/h (0 Bft) W-NW 292 -2,8 C 2,3 C 0,0 km/h (0 Bft)
10.02.2015 12:35 1,2 C 1,4 C 74 % 74 % 1031,2 hPa 0,0 l/m 0,3 km/h (0 Bft) N-NO 22 -2,9 C 2,2 C 0,0 km/h (0 Bft)
10.02.2015 12:40 1,1 C 1,4 C 74 % 74 % 1031,2 hPa 0,0 l/m 0,3 km/h (0 Bft) O-NO 67 -3,0 C 1,9 C 0,0 km/h (0 Bft)
10.02.2015 12:45 1,2 C 1,4 C 73 % 73 % 1031,2 hPa 0,0 l/m 0,2 km/h (0 Bft) W-SW 247 -3,1 C 1,7 C 0,0 km/h (0 Bft)
10.02.2015 12:50 1,2 C 1,4 C 72 % 72 % 1030,8 hPa 0,0 l/m 0,6 km/h (0 Bft) W 270 -3,3 C 1,6 C 2,1 km/h (1 Bft)
10.02.2015 12:55 1,4 C 1,3 C 72 % 72 % 1030,8 hPa 0,0 l/m 0,8 km/h (0 Bft) W 270 -3,1 C 1,6 C 0,0 km/h (0 Bft)
10.02.2015 13:00 1,3 C 1,3 C 71 % 71 % 1030,8 hPa 0,0 l/m 0,6 km/h (0 Bft) SW 225 -3,4 C 1,6 C 0,0 km/h (0 Bft)
10.02.2015 13:05 1,4 C 1,3 C 71 % 71 % 1030,8 hPa 0,0 l/m 0,6 km/h (0 Bft) SW 225 -3,3 C 2,4 C 2,1 km/h (1 Bft)
10.02.2015 13:10 1,5 C 1,3 C 70 % 70 % 1030,0 hPa 0,0 l/m 0,6 km/h (0 Bft) O-NO 67 -3,4 C 2,8 C 0,0 km/h (0 Bft)
10.02.2015 13:15 1,8 C 1,3 C 69 % 69 % 1030,0 hPa 0,0 l/m 0,6 km/h (0 Bft) O-NO 67 -3,3 C 3,3 C 0,0 km/h (0 Bft)
10.02.2015 13:20 2,0 C 1,3 C 69 % 69 % 1030,0 hPa 0,0 l/m 0,5 km/h (0 Bft) S 180 -3,1 C 4,2 C 2,4 km/h (1 Bft)
10.02.2015 13:25 1,9 C 1,3 C 69 % 69 % 1030,0 hPa 0,0 l/m 0,8 km/h (0 Bft) W-SW 247 -3,2 C 3,6 C 1,6 km/h (1 Bft)
10.02.2015 13:30 2,3 C 1,3 C 69 % 69 % 1029,9 hPa 0,0 l/m 1,0 km/h (0 Bft) W-SW 247 -2,8 C 3,4 C 3,1 km/h (1 Bft)
10.02.2015 13:35 2,3 C 1,3 C 68 % 68 % 1029,9 hPa 0,0 l/m 1,1 km/h (1 Bft) W 270 -3,0 C 3,4 C 0,0 km/h (0 Bft)
10.02.2015 13:40 3,1 C 1,3 C 68 % 68 % 1029,9 hPa 0,0 l/m 1,8 km/h (1 Bft) W-NW 292 -2,2 C 4,2 C 2,6 km/h (1 Bft)
10.02.2015 13:45 4,4 C 1,3 C 67 % 67 % 1029,9 hPa 0,0 l/m 2,1 km/h (1 Bft) W 270 -1,2 C 5,1 C 2,6 km/h (1 Bft)
10.02.2015 13:50 6,3 C 1,4 C 65 % 65 % 1030,5 hPa 0,0 l/m 2,4 km/h (1 Bft) W 270 0,2 C 6,8 C 4,5 km/h (1 Bft)
10.02.2015 13:55 6,8 C 1,4 C 64 % 64 % 1030,5 hPa 0,0 l/m 1,9 km/h (1 Bft) N-NW 337 0,5 C 8,0 C 2,9 km/h (1 Bft)
10.02.2015 14:00 7,1 C 1,4 C 62 % 62 % 1030,5 hPa 0,0 l/m 1,1 km/h (1 Bft) N-NW 337 0,3 C 10,0 C 0,0 km/h (0 Bft)
10.02.2015 14:05 8,1 C 1,3 C 62 % 62 % 1030,5 hPa 0,0 l/m 0,6 km/h (0 Bft) W 270 1,3 C 11,1 C 0,0 km/h (0 Bft)
10.02.2015 14:10 8,4 C 1,3 C 60 % 60 % 1030,8 hPa 0,0 l/m 0,3 km/h (0 Bft) SW 225 1,1 C 12,1 C 2,3 km/h (1 Bft)
10.02.2015 14:15 8,0 C 1,3 C 59 % 59 % 1030,8 hPa 0,0 l/m 1,0 km/h (0 Bft) W 270 0,5 C 12,6 C 3,2 km/h (1 Bft)
10.02.2015 14:20 7,5 C 1,3 C 58 % 58 % 1030,8 hPa 0,0 l/m 2,4 km/h (1 Bft) W-SW 247 -0,2 C 12,0 C 3,2 km/h (1 Bft)
10.02.2015 14:25 7,7 C 1,3 C 57 % 57 % 1030,8 hPa 0,0 l/m 2,6 km/h (1 Bft) W 270 -0,3 C 11,8 C 0,0 km/h (0 Bft)
10.02.2015 14:30 8,2 C 1,3 C 58 % 58 % 1030,8 hPa 0,0 l/m 1,4 km/h (1 Bft) W-SW 247 0,4 C 12,3 C 0,0 km/h (0 Bft)
10.02.2015 14:35 9,1 C 1,3 C 58 % 58 % 1030,8 hPa 0,0 l/m 0,3 km/h (0 Bft) W-SW 247 1,3 C 12,7 C 0,0 km/h (0 Bft)
10.02.2015 14:40 10,0 C 1,3 C 58 % 58 % 1030,8 hPa 0,0 l/m 0,0 km/h (0 Bft) W-SW 247 2,1 C 13,4 C 0,0 km/h (0 Bft)
10.02.2015 14:45 9,2 C 1,4 C 58 % 58 % 1030,8 hPa 0,0 l/m 0,0 km/h (0 Bft) O-NO 67 1,4 C 13,9 C 1,8 km/h (1 Bft)
10.02.2015 14:50 7,7 C 1,4 C 57 % 57 % 1030,9 hPa 0,0 l/m 0,6 km/h (0 Bft) NO 45 -0,3 C 13,3 C 2,3 km/h (1 Bft)
10.02.2015 14:55 6,7 C 1,3 C 57 % 57 % 1030,9 hPa 0,0 l/m 1,6 km/h (1 Bft) O-NO 67 -1,2 C 12,3 C 3,2 km/h (1 Bft)
10.02.2015 15:00 6,3 C 1,3 C 57 % 57 % 1030,9 hPa 0,0 l/m 2,4 km/h (1 Bft) NO 45 -1,6 C 11,1 C 2,9 km/h (1 Bft)
10.02.2015 15:05 6,4 C 1,3 C 57 % 57 % 1030,9 hPa 0,0 l/m 2,4 km/h (1 Bft) O-NO 67 -1,5 C 10,6 C 2,9 km/h (1 Bft)
10.02.2015 15:10 6,3 C 1,3 C 57 % 57 % 1030,8 hPa 0,0 l/m 1,9 km/h (1 Bft) O 90 -1,6 C 10,2 C 1,9 km/h (1 Bft)
10.02.2015 15:15 5,9 C 1,3 C 57 % 57 % 1030,8 hPa 0,0 l/m 1,8 km/h (1 Bft) O-NO 67 -2,0 C 10,0 C 3,7 km/h (1 Bft)
10.02.2015 15:20 6,4 C 1,3 C 58 % 58 % 1030,8 hPa 0,0 l/m 0,8 km/h (0 Bft) NO 45 -1,2 C 10,0 C 0,0 km/h (0 Bft)
10.02.2015 15:25 6,2 C 1,3 C 58 % 58 % 1030,8 hPa 0,0 l/m 0,6 km/h (0 Bft) O 90 -1,4 C 10,2 C 2,6 km/h (1 Bft)
10.02.2015 15:30 5,8 C 1,3 C 58 % 58 % 1030,2 hPa 0,0 l/m 0,8 km/h (0 Bft) O-NO 67 -1,8 C 9,5 C 1,9 km/h (1 Bft)
10.02.2015 15:35 5,3 C 1,3 C 58 % 58 % 1030,2 hPa 0,0 l/m 0,6 km/h (0 Bft) O-SO 112 -2,3 C 8,8 C 0,0 km/h (0 Bft)
10.02.2015 15:40 4,1 C 1,3 C 58 % 58 % 1030,2 hPa 0,0 l/m 1,0 km/h (0 Bft) N-NW 337 -3,4 C 7,7 C 0,0 km/h (0 Bft)
10.02.2015 15:45 3,8 C 1,4 C 59 % 59 % 1030,2 hPa 0,0 l/m 1,0 km/h (0 Bft) NO 45 -3,5 C 7,3 C 0,0 km/h (0 Bft)
10.02.2015 15:50 3,2 C 1,4 C 59 % 59 % 1029,9 hPa 0,0 l/m 0,2 km/h (0 Bft) NO 45 -4,0 C 6,8 C 0,0 km/h (0 Bft)
10.02.2015 15:55 2,6 C 1,3 C 59 % 59 % 1029,9 hPa 0,0 l/m 0,2 km/h (0 Bft) O-NO 67 -4,6 C 5,9 C 0,0 km/h (0 Bft)
10.02.2015 16:00 1,7 C 1,3 C 60 % 60 % 1029,9 hPa 0,0 l/m 0,2 km/h (0 Bft) O-NO 67 -5,2 C 3,7 C 0,0 km/h (0 Bft)
10.02.2015 16:05 1,3 C 1,3 C 61 % 61 % 1029,9 hPa 0,0 l/m 0,0 km/h (0 Bft) O-NO 67 -5,4 C 2,6 C 0,0 km/h (0 Bft)
10.02.2015 16:10 1,1 C 1,3 C 63 % 63 % 1029,4 hPa 0,0 l/m 0,0 km/h (0 Bft) O-NO 67 -5,1 C 1,3 C 0,0 km/h (0 Bft)
10.02.2015 16:15 0,8 C 1,3 C 63 % 63 % 1029,4 hPa 0,0 l/m 0,0 km/h (0 Bft) O-NO 67 -5,4 C 0,7 C 0,0 km/h (0 Bft)
10.02.2015 16:20 0,8 C 1,3 C 64 % 64 % 1029,4 hPa 0,0 l/m 0,5 km/h (0 Bft) O-NO 67 -5,2 C 0,3 C 3,1 km/h (1 Bft)
10.02.2015 16:25 0,8 C 1,3 C 65 % 65 % 1029,4 hPa 0,0 l/m 0,6 km/h (0 Bft) O-SO 112 -5,0 C 0,1 C 0,0 km/h (0 Bft)
10.02.2015 16:30 0,6 C 1,3 C 65 % 65 % 1029,2 hPa 0,0 l/m 0,6 km/h (0 Bft) O-NO 67 -5,2 C -0,2 C 0,0 km/h (0 Bft)
10.02.2015 16:35 0,5 C 1,4 C 65 % 65 % 1029,2 hPa 0,0 l/m 0,2 km/h (0 Bft) O 90 -5,3 C -0,4 C 0,0 km/h (0 Bft)
10.02.2015 16:40 0,1 C 1,4 C 66 % 66 % 1029,2 hPa 0,0 l/m 0,0 km/h (0 Bft) O-SO 112 -5,5 C -0,7 C 0,0 km/h (0 Bft)
10.02.2015 16:45 0,1 C 1,4 C 66 % 66 % 1029,2 hPa 0,0 l/m 0,0 km/h (0 Bft) O-SO 112 -5,5 C -0,9 C 0,0 km/h (0 Bft)
10.02.2015 16:50 0,0 C 1,4 C 67 % 67 % 1028,9 hPa 0,0 l/m 0,0 km/h (0 Bft) SO 135 -5,4 C -1,0 C 1,6 km/h (1 Bft)
10.02.2015 16:55 0,1 C 1,4 C 68 % 68 % 1028,9 hPa 0,0 l/m 0,2 km/h (0 Bft) SO 135 -5,1 C -1,0 C 0,0 km/h (0 Bft)
10.02.2015 16:56 0,1 C 1,4 C 68 % 68 % 1028,9 hPa 0,0 l/m 0,2 km/h (0 Bft) SO 135 -5,1 C -1,0 C 0,0 km/h (0 Bft)
10.02.2015 17:00 -0,2 C 1,4 C 68 % 68 % 1028,9 hPa 0,0 l/m 0,3 km/h (0 Bft) SO 135 -5,4 C -1,1 C 0,0 km/h (0 Bft)
10.02.2015 17:05 -0,3 C 1,4 C 69 % 69 % 1028,9 hPa 0,0 l/m 0,3 km/h (0 Bft) SO 135 -5,3 C -1,2 C 0,0 km/h (0 Bft)
10.02.2015 17:10 -0,6 C 1,4 C 69 % 69 % 1028,9 hPa 0,0 l/m 0,2 km/h (0 Bft) SO 135 -5,6 C -1,4 C 0,0 km/h (0 Bft)
10.02.2015 17:15 -0,7 C 1,3 C 70 % 70 % 1028,9 hPa 0,0 l/m 0,3 km/h (0 Bft) SO 135 -5,5 C -1,6 C 1,6 km/h (1 Bft)
10.02.2015 17:20 -0,9 C 1,3 C 71 % 71 % 1028,9 hPa 0,0 l/m 0,5 km/h (0 Bft) S-SO 157 -5,5 C -1,8 C 2,1 km/h (1 Bft)
10.02.2015 17:25 -0,9 C 1,3 C 71 % 71 % 1028,9 hPa 0,0 l/m 0,5 km/h (0 Bft) S-SO 157 -5,5 C -1,9 C 1,9 km/h (1 Bft)
10.02.2015 17:30 -1,3 C 1,3 C 72 % 72 % 1028,9 hPa 0,0 l/m 0,6 km/h (0 Bft) S-SO 157 -5,7 C -2,1 C 0,0 km/h (0 Bft)
10.02.2015 17:35 -1,4 C 1,3 C 72 % 72 % 1028,9 hPa 0,0 l/m 0,5 km/h (0 Bft) S-SO 157 -5,8 C -2,3 C 0,0 km/h (0 Bft)
10.02.2015 17:40 -2,3 C 1,3 C 71 % 71 % 1028,9 hPa 0,0 l/m 0,0 km/h (0 Bft) SO 135 -6,8 C -2,7 C 0,0 km/h (0 Bft)
10.02.2015 17:45 -2,5 C 1,3 C 72 % 72 % 1028,9 hPa 0,0 l/m 0,0 km/h (0 Bft) S-SO 157 -6,8 C -3,2 C 0,0 km/h (0 Bft)
10.02.2015 17:50 -2,4 C 1,3 C 73 % 73 % 1029,1 hPa 0,0 l/m 0,0 km/h (0 Bft) SO 135 -6,6 C -3,5 C 0,0 km/h (0 Bft)
10.02.2015 17:55 -2,3 C 1,3 C 74 % 74 % 1029,1 hPa 0,0 l/m 0,0 km/h (0 Bft) S-SO 157 -6,3 C -3,6 C 0,0 km/h (0 Bft)
10.02.2015 18:00 -2,8 C 1,3 C 73 % 73 % 1029,1 hPa 0,0 l/m 0,0 km/h (0 Bft) S 180 -6,9 C -3,8 C 0,0 km/h (0 Bft)
10.02.2015 18:05 -3,3 C 1,3 C 73 % 73 % 1029,1 hPa 0,0 l/m 0,0 km/h (0 Bft) SO 135 -7,4 C -4,1 C 0,0 km/h (0 Bft)
10.02.2015 18:10 -3,5 C 1,3 C 74 % 74 % 1029,2 hPa 0,0 l/m 0,0 km/h (0 Bft) SO 135 -7,4 C -4,4 C 0,0 km/h (0 Bft)
10.02.2015 18:15 -3,4 C 1,3 C 75 % 75 % 1029,2 hPa 0,0 l/m 0,0 km/h (0 Bft) SO 135 -7,2 C -4,6 C 0,0 km/h (0 Bft)
10.02.2015 18:20 -3,2 C 1,3 C 75 % 75 % 1029,2 hPa 0,0 l/m 0,0 km/h (0 Bft) SO 135 -7,0 C -4,7 C 0,0 km/h (0 Bft)
10.02.2015 18:25 -3,2 C 1,3 C 75 % 75 % 1029,2 hPa 0,0 l/m 0,0 km/h (0 Bft) SO 135 -7,0 C -4,7 C 0,0 km/h (0 Bft)
10.02.2015 18:30 -3,6 C 1,3 C 75 % 75 % 1029,1 hPa 0,0 l/m 0,0 km/h (0 Bft) SO 135 -7,4 C -4,9 C 0,0 km/h (0 Bft)
10.02.2015 18:35 -4,2 C 1,3 C 75 % 75 % 1029,1 hPa 0,0 l/m 0,0 km/h (0 Bft) SO 135 -8,0 C -5,0 C 0,0 km/h (0 Bft)
10.02.2015 18:40 -4,4 C 1,3 C 75 % 75 % 1029,1 hPa 0,0 l/m 0,0 km/h (0 Bft) S-SO 157 -8,1 C -5,4 C 0,0 km/h (0 Bft)
10.02.2015 18:45 -4,2 C 1,3 C 75 % 75 % 1029,1 hPa 0,0 l/m 0,0 km/h (0 Bft) S 180 -8,0 C -5,4 C 0,0 km/h (0 Bft)
10.02.2015 18:50 -4,7 C 1,4 C 75 % 75 % 1029,1 hPa 0,0 l/m 0,0 km/h (0 Bft) SO 135 -8,4 C -5,6 C 0,0 km/h (0 Bft)
10.02.2015 18:55 -4,7 C 1,4 C 76 % 76 % 1029,1 hPa 0,0 l/m 0,0 km/h (0 Bft) S 180 -8,3 C -5,7 C 0,0 km/h (0 Bft)
10.02.2015 19:00 -4,4 C 1,4 C 76 % 76 % 1029,1 hPa 0,0 l/m 0,0 km/h (0 Bft) S 180 -8,0 C -5,6 C 0,0 km/h (0 Bft)
10.02.2015 19:05 -4,7 C 1,4 C 76 % 76 % 1029,1 hPa 0,0 l/m 0,0 km/h (0 Bft) SO 135 -8,3 C -5,7 C 0,0 km/h (0 Bft)
10.02.2015 19:10 -5,2 C 1,4 C 76 % 76 % 1029,2 hPa 0,0 l/m 0,0 km/h (0 Bft) S 180 -8,8 C -6,0 C 0,0 km/h (0 Bft)
10.02.2015 19:15 -5,1 C 1,4 C 77 % 77 % 1029,2 hPa 0,0 l/m 0,2 km/h (0 Bft) SO 135 -8,5 C -6,1 C 2,6 km/h (1 Bft)
10.02.2015 19:20 -4,5 C 1,4 C 78 % 78 % 1029,2 hPa 0,0 l/m 0,6 km/h (0 Bft) SO 135 -7,7 C -5,4 C 0,0 km/h (0 Bft)
10.02.2015 19:25 -4,9 C 1,4 C 77 % 77 % 1029,2 hPa 0,0 l/m 0,6 km/h (0 Bft) SO 135 -8,3 C -5,4 C 0,0 km/h (0 Bft)
10.02.2015 19:30 -5,2 C 1,4 C 77 % 77 % 1029,2 hPa 0,0 l/m 0,0 km/h (0 Bft) SO 135 -8,6 C -5,8 C 0,0 km/h (0 Bft)
10.02.2015 19:35 -5,5 C 1,4 C 77 % 77 % 1029,2 hPa 0,0 l/m 0,0 km/h (0 Bft) SO 135 -8,9 C -6,1 C 0,0 km/h (0 Bft)
10.02.2015 19:40 -4,9 C 1,4 C 78 % 78 % 1029,2 hPa 0,0 l/m 0,0 km/h (0 Bft) O-SO 112 -8,1 C -6,1 C 0,0 km/h (0 Bft)
10.02.2015 19:45 -4,9 C 1,4 C 78 % 78 % 1029,2 hPa 0,0 l/m 0,0 km/h (0 Bft) SO 135 -8,1 C -5,8 C 0,0 km/h (0 Bft)
10.02.2015 19:50 -5,1 C 1,4 C 78 % 78 % 1028,8 hPa 0,0 l/m 0,0 km/h (0 Bft) O-SO 112 -8,3 C -5,6 C 0,0 km/h (0 Bft)
10.02.2015 19:55 -5,1 C 1,4 C 78 % 78 % 1028,8 hPa 0,0 l/m 0,0 km/h (0 Bft) SO 135 -8,3 C -5,6 C 0,0 km/h (0 Bft)
10.02.2015 19:58 -5,1 C 1,4 C 78 % 78 % 1028,8 hPa 0,0 l/m 0,0 km/h (0 Bft) SO 135 -8,3 C -5,6 C 0,0 km/h (0 Bft)
10.02.2015 19:59 -4,4 C 1,4 C 78 % 78 % 1028,6 hPa 0,0 l/m 0,5 km/h (0 Bft) O-SO 112 -7,6 C -5,0 C 0,0 km/h (0 Bft)
10.02.2015 20:00 -4,4 C 1,4 C 78 % 78 % 1028,6 hPa 0,0 l/m 0,5 km/h (0 Bft) O-SO 112 -7,6 C -5,0 C 2,3 km/h (1 Bft)
10.02.2015 20:05 -5,0 C 1,4 C 78 % 78 % 1028,6 hPa 0,0 l/m 0,5 km/h (0 Bft) S 180 -8,2 C -5,3 C 0,0 km/h (0 Bft)
10.02.2015 20:10 -5,6 C 1,2 C 78 % 78 % 1028,6 hPa 0,0 l/m 0,0 km/h (0 Bft) S 180 -8,8 C -6,0 C 0,0 km/h (0 Bft)
10.02.2015 20:15 -5,9 C 1,2 C 78 % 78 % 1028,7 hPa 0,0 l/m 0,0 km/h (0 Bft) S 180 -9,1 C -6,3 C 0,0 km/h (0 Bft)
10.02.2015 20:20 -5,7 C 1,3 C 78 % 78 % 1028,7 hPa 0,0 l/m 0,0 km/h (0 Bft) S 180 -8,9 C -6,4 C 0,0 km/h (0 Bft)
10.02.2015 20:25 -6,0 C 1,3 C 78 % 78 % 1028,7 hPa 0,0 l/m 0,0 km/h (0 Bft) S 180 -9,2 C -6,5 C 0,0 km/h (0 Bft)
10.02.2015 20:30 -6,0 C 1,3 C 79 % 79 % 1028,7 hPa 0,0 l/m 0,0 km/h (0 Bft) S 180 -9,0 C -6,7 C 2,6 km/h (1 Bft)
10.02.2015 20:35 -5,5 C 1,3 C 79 % 79 % 1028,9 hPa 0,0 l/m 0,2 km/h (0 Bft) NO 45 -8,5 C -6,3 C 0,0 km/h (0 Bft)
10.02.2015 20:40 -6,1 C 1,3 C 79 % 79 % 1028,9 hPa 0,0 l/m 0,2 km/h (0 Bft) NO 45 -9,1 C -6,5 C 0,0 km/h (0 Bft)
10.02.2015 20:45 -6,4 C 1,3 C 79 % 79 % 1028,9 hPa 0,0 l/m 0,0 km/h (0 Bft) NO 45 -9,4 C -6,7 C 0,0 km/h (0 Bft)
10.02.2015 20:50 -6,5 C 1,3 C 79 % 79 % 1028,9 hPa 0,0 l/m 0,0 km/h (0 Bft) NO 45 -9,5 C -7,0 C 0,0 km/h (0 Bft)
10.02.2015 20:55 -6,6 C 1,3 C 79 % 79 % 1029,1 hPa 0,0 l/m 0,0 km/h (0 Bft) NO 45 -9,6 C -7,2 C 0,0 km/h (0 Bft)
10.02.2015 21:00 -6,9 C 1,3 C 79 % 79 % 1029,1 hPa 0,0 l/m 0,0 km/h (0 Bft) NO 45 -9,9 C -7,4 C 0,0 km/h (0 Bft)
10.02.2015 21:05 -6,8 C 1,3 C 79 % 79 % 1029,1 hPa 0,0 l/m 0,0 km/h (0 Bft) NO 45 -9,8 C -7,5 C 0,0 km/h (0 Bft)
10.02.2015 21:10 -6,9 C 1,3 C 79 % 79 % 1029,1 hPa 0,0 l/m 0,0 km/h (0 Bft) NO 45 -9,9 C -7,5 C 0,0 km/h (0 Bft)
10.02.2015 21:15 -6,9 C 1,3 C 79 % 79 % 1028,8 hPa 0,0 l/m 0,0 km/h (0 Bft) NO 45 -9,9 C -7,6 C 0,0 km/h (0 Bft)
10.02.2015 21:18 -6,9 C 1,3 C 79 % 79 % 1028,8 hPa 0,0 l/m 0,0 km/h (0 Bft) NO 45 -9,9 C -7,6 C 0,0 km/h (0 Bft)
10.02.2015 21:23 -6,6 C 1,3 C 79 % 79 % 1028,8 hPa 0,0 l/m 0,0 km/h (0 Bft) N-NO 22 -9,6 C -7,5 C 0,0 km/h (0 Bft)
10.02.2015 21:28 -6,8 C 1,3 C 79 % 79 % 1028,8 hPa 0,0 l/m 0,0 km/h (0 Bft) NO 45 -9,8 C -7,5 C 0,0 km/h (0 Bft)
10.02.2015 21:33 -7,2 C 1,3 C 79 % 79 % 1028,8 hPa 0,0 l/m 0,0 km/h (0 Bft) NO 45 -10,2 C -7,6 C 0,0 km/h (0 Bft)
10.02.2015 21:38 -6,9 C 1,3 C 79 % 79 % 1028,8 hPa 0,0 l/m 0,0 km/h (0 Bft) O-SO 112 -9,9 C -7,5 C 0,0 km/h (0 Bft)
10.02.2015 21:43 -7,0 C 1,3 C 79 % 79 % 1028,8 hPa 0,0 l/m 0,0 km/h (0 Bft) O-SO 112 -10,0 C -7,5 C 0,0 km/h (0 Bft)
10.02.2015 21:48 -6,5 C 1,3 C 79 % 79 % 1028,8 hPa 0,0 l/m 0,0 km/h (0 Bft) O-NO 67 -9,5 C -7,5 C 0,0 km/h (0 Bft)
10.02.2015 21:53 -6,5 C 1,3 C 79 % 79 % 1029,0 hPa 0,0 l/m 0,0 km/h (0 Bft) O-NO 67 -9,5 C -7,3 C 0,0 km/h (0 Bft)
10.02.2015 21:58 -6,8 C 1,3 C 79 % 79 % 1029,0 hPa 0,0 l/m 0,0 km/h (0 Bft) O 90 -9,8 C -7,5 C 0,0 km/h (0 Bft)
10.02.2015 22:03 -7,0 C 1,3 C 79 % 79 % 1029,0 hPa 0,0 l/m 0,0 km/h (0 Bft) O 90 -10,0 C -7,8 C 0,0 km/h (0 Bft)
10.02.2015 22:08 -6,9 C 1,3 C 79 % 79 % 1029,0 hPa 0,0 l/m 0,0 km/h (0 Bft) O-SO 112 -9,9 C -7,8 C 0,0 km/h (0 Bft)
10.02.2015 22:13 -6,8 C 1,3 C 79 % 79 % 1029,0 hPa 0,0 l/m 0,0 km/h (0 Bft) S-SO 157 -9,8 C -7,6 C 0,0 km/h (0 Bft)
10.02.2015 22:18 -7,3 C 1,3 C 79 % 79 % 1029,0 hPa 0,0 l/m 0,0 km/h (0 Bft) S-SO 157 -10,3 C -7,8 C 0,0 km/h (0 Bft)
10.02.2015 22:23 -7,2 C 1,3 C 79 % 79 % 1029,0 hPa 0,0 l/m 0,0 km/h (0 Bft) O 90 -10,2 C -7,9 C 0,0 km/h (0 Bft)
10.02.2015 22:28 -7,3 C 1,3 C 79 % 79 % 1029,0 hPa 0,0 l/m 0,0 km/h (0 Bft) S-SO 157 -10,3 C -8,1 C 0,0 km/h (0 Bft)
10.02.2015 22:33 -7,5 C 1,3 C 79 % 79 % 1028,8 hPa 0,0 l/m 0,0 km/h (0 Bft) S-SO 157 -10,5 C -8,2 C 0,0 km/h (0 Bft)
10.02.2015 22:38 -7,1 C 1,3 C 79 % 79 % 1028,8 hPa 0,0 l/m 0,0 km/h (0 Bft) NW 315 -10,1 C -8,1 C 0,0 km/h (0 Bft)
10.02.2015 22:43 -7,5 C 1,3 C 79 % 79 % 1028,8 hPa 0,0 l/m 0,0 km/h (0 Bft) NW 315 -10,5 C -8,1 C 0,0 km/h (0 Bft)
10.02.2015 22:48 -7,8 C 1,3 C 79 % 79 % 1028,8 hPa 0,0 l/m 0,0 km/h (0 Bft) NW 315 -10,8 C -8,2 C 0,0 km/h (0 Bft)
10.02.2015 22:53 -7,9 C 1,3 C 79 % 79 % 1028,6 hPa 0,0 l/m 0,0 km/h (0 Bft) NW 315 -10,9 C -8,3 C 0,0 km/h (0 Bft)
10.02.2015 22:58 -7,9 C 1,3 C 79 % 79 % 1028,6 hPa 0,0 l/m 0,0 km/h (0 Bft) NW 315 -10,9 C -8,5 C 0,0 km/h (0 Bft)
10.02.2015 23:03 -7,8 C 1,3 C 79 % 79 % 1028,6 hPa 0,0 l/m 0,0 km/h (0 Bft) W-SW 247 -10,8 C -8,6 C 0,0 km/h (0 Bft)
10.02.2015 23:08 -8,0 C 1,3 C 79 % 79 % 1028,6 hPa 0,0 l/m 0,0 km/h (0 Bft) W 270 -11,0 C -8,6 C 0,0 km/h (0 Bft)
10.02.2015 23:13 -8,1 C 1,3 C 79 % 79 % 1028,4 hPa 0,0 l/m 0,0 km/h (0 Bft) W-SW 247 -11,1 C -8,7 C 0,0 km/h (0 Bft)
10.02.2015 23:18 -8,0 C 1,3 C 79 % 79 % 1028,4 hPa 0,0 l/m 0,0 km/h (0 Bft) W 270 -11,0 C -8,7 C 0,0 km/h (0 Bft)
10.02.2015 23:23 -8,1 C 1,3 C 79 % 79 % 1028,4 hPa 0,0 l/m 0,0 km/h (0 Bft) W-SW 247 -11,1 C -8,8 C 0,0 km/h (0 Bft)
10.02.2015 23:28 -8,3 C 1,3 C 79 % 79 % 1028,4 hPa 0,0 l/m 0,0 km/h (0 Bft) W-SW 247 -11,3 C -8,8 C 0,0 km/h (0 Bft)
10.02.2015 23:33 -8,2 C 1,3 C 79 % 79 % 1028,2 hPa 0,0 l/m 0,0 km/h (0 Bft) W-SW 247 -11,2 C -8,8 C 0,0 km/h (0 Bft)
10.02.2015 23:38 -8,4 C 1,3 C 79 % 79 % 1028,2 hPa 0,0 l/m 0,0 km/h (0 Bft) W-SW 247 -11,4 C -8,8 C 0,0 km/h (0 Bft)
10.02.2015 23:43 -8,4 C 1,3 C 79 % 79 % 1028,2 hPa 0,0 l/m 0,0 km/h (0 Bft) W-SW 247 -11,4 C -8,8 C 0,0 km/h (0 Bft)
10.02.2015 23:48 -8,2 C 1,3 C 79 % 79 % 1028,2 hPa 0,0 l/m 0,0 km/h (0 Bft) W-SW 247 -11,2 C -8,9 C 0,0 km/h (0 Bft)
10.02.2015 23:53 -8,0 C 1,3 C 79 % 79 % 1028,1 hPa 0,0 l/m 0,0 km/h (0 Bft) W-SW 247 -11,0 C -8,9 C 0,0 km/h (0 Bft)
10.02.2015 23:58 -8,0 C 1,3 C 79 % 79 % 1028,1 hPa 0,0 l/m 0,0 km/h (0 Bft) W-SW 247 -11,0 C -8,9 C 0,0 km/h (0 Bft)
_ Min-Zeit 07:27 20:15 15:15 15:15 23:58 - 23:58 - - 07:27 07:37 23:58
Minimum _ -9,2 C 1,2 C 57 % 57 % 1028,1 hPa - 0,0 km/h (0 Bft) - - -12,2 C -10,0 C 0,0 km/h (0 Bft)
_ Max-Zeit 14:40 20:05 11:30 11:30 12:45 23:58 02:07 - - 14:40 14:45 00:55
Maximum _ 10,0 C 1,4 C 83 % 83 % 1031,2 hPa 0,0 l/m 5,5 km/h
S (1 Bft)
- - 2,1 C 13,9 C 8,2 km/h
SW (2 Bft)
Durchschnitt _ -3,3 C 1,3 C 75 % 75 % 1029,5 hPa #0,0 l/m 0,6 km/h (0 Bft) W-SW - -7,2 C -3,5 C 0,8 km/h (0 Bft)